createdAt,value
2015-09-10T00:00:03.982Z,-1.22
2015-09-10T00:00:16.391Z,-1.21
2015-09-10T00:00:28.797Z,-1.17
2015-09-10T00:00:40.531Z,-1.17
2015-09-10T00:00:52.984Z,-1.16
2015-09-10T00:01:05.266Z,-1.21
2015-09-10T00:01:17.706Z,-1.17
2015-09-10T00:01:30.128Z,-1.14
2015-09-10T00:01:42.550Z,-1.17
2015-09-10T00:01:54.972Z,-1.17
2015-09-10T00:02:07.378Z,-1.17
2015-09-10T00:02:19.770Z,-1.16
2015-09-10T00:02:32.191Z,-1.24
2015-09-10T00:02:44.613Z,-1.13
2015-09-10T00:02:57.004Z,-1.17
2015-09-10T00:03:09.395Z,-1.19
2015-09-10T00:03:21.803Z,-1.16
2015-09-10T00:03:34.193Z,-1.16
2015-09-10T00:03:46.615Z,-1.14
2015-09-10T00:03:59.022Z,-1.13
2015-09-10T00:04:11.459Z,-1.17
2015-09-10T00:04:23.992Z,-1.13
2015-09-10T00:04:36.414Z,-1.14
2015-09-10T00:04:48.852Z,-1.13
2015-09-10T00:05:01.289Z,-1.19
2015-09-10T00:05:13.711Z,-1.11
2015-09-10T00:05:25.463Z,-1.14
2015-09-10T00:05:37.854Z,-1.16
2015-09-10T00:05:50.276Z,-1.11
2015-09-10T00:06:02.682Z,-1.16
2015-09-10T00:06:15.072Z,-1.16
2015-09-10T00:06:27.481Z,-1.07
2015-09-10T00:06:39.871Z,-1.13
2015-09-10T00:06:52.278Z,-1.16
2015-09-10T00:07:04.684Z,-1.13
2015-09-10T00:07:17.074Z,-1.17
2015-09-10T00:07:29.483Z,-1.09
2015-09-10T00:07:41.186Z,-1.1
2015-09-10T00:07:53.686Z,-1.11
2015-09-10T00:08:06.201Z,-1.04
2015-09-10T00:08:18.623Z,-1.16
2015-09-10T00:08:31.047Z,-1.03
2015-09-10T00:08:43.469Z,-1.06
2015-09-10T00:08:55.891Z,-1.11
2015-09-10T00:09:08.282Z,-1.04
2015-09-10T00:09:20.688Z,-1.1
2015-09-10T00:09:33.159Z,-1.14
2015-09-10T00:09:45.612Z,-1.04
2015-09-10T00:09:57.299Z,-1.1
2015-09-10T00:10:09.549Z,-1.11
2015-09-10T00:10:21.955Z,-1.11
2015-09-10T00:10:34.364Z,-1.17
2015-09-10T00:10:46.817Z,-1.04
2015-09-10T00:10:59.270Z,-1.06
2015-09-10T00:11:11.676Z,-1.11
2015-09-10T00:11:24.082Z,-1.04
2015-09-10T00:11:36.538Z,-0.99
2015-09-10T00:11:48.959Z,-1.04
2015-09-10T00:12:01.381Z,-1.09
2015-09-10T00:12:13.803Z,-0.99
2015-09-10T00:12:26.225Z,-0.99
2015-09-10T00:12:38.665Z,-1.01
2015-09-10T00:12:51.071Z,-1.04
2015-09-10T00:13:03.524Z,-1.13
2015-09-10T00:13:15.915Z,-1.11
2015-09-10T00:13:28.321Z,-1.13
2015-09-10T00:13:40.713Z,-1.06
2015-09-10T00:13:53.135Z,-1.01
2015-09-10T00:14:05.526Z,-1.03
2015-09-10T00:14:17.917Z,-1.04
2015-09-10T00:14:30.323Z,-1.03
2015-09-10T00:14:42.730Z,-1.1
2015-09-10T00:14:55.136Z,-1.11
2015-09-10T00:15:07.589Z,-1.04
2015-09-10T00:15:20.293Z,-1.06
2015-09-10T00:15:32.730Z,-1.1
2015-09-10T00:15:45.154Z,-1.04
2015-09-10T00:15:57.638Z,-1.06
2015-09-10T00:16:10.029Z,-0.95
2015-09-10T00:16:22.420Z,-1.01
2015-09-10T00:16:34.841Z,-1.06
2015-09-10T00:16:47.251Z,-1.01
2015-09-10T00:16:59.641Z,-1.04
2015-09-10T00:17:12.032Z,-1.03
2015-09-10T00:17:24.438Z,-1.04
2015-09-10T00:17:36.954Z,-0.98
2015-09-10T00:17:49.345Z,-1.09
2015-09-10T00:18:01.752Z,-1.01
2015-09-10T00:18:14.174Z,-1.01
2015-09-10T00:18:26.580Z,-0.98
2015-09-10T00:18:39.002Z,-1.03
2015-09-10T00:18:51.473Z,-0.96
2015-09-10T00:19:03.942Z,-1.09
2015-09-10T00:19:16.333Z,-0.99
2015-09-10T00:19:28.739Z,-1.01
2015-09-10T00:19:41.192Z,-1.06
2015-09-10T00:19:53.709Z,-1.01
2015-09-10T00:20:06.099Z,-1.01
2015-09-10T00:20:18.506Z,-1.03
2015-09-10T00:20:30.896Z,-1.01
2015-09-10T00:20:43.305Z,-1.03
2015-09-10T00:20:55.726Z,-1.03
2015-09-10T00:21:08.211Z,-1.09
2015-09-10T00:21:20.648Z,-1.1
2015-09-10T00:21:33.086Z,-1.01
2015-09-10T00:21:45.510Z,-1.13
2015-09-10T00:21:57.932Z,-1.03
2015-09-10T00:22:10.322Z,-1.09
2015-09-10T00:22:22.713Z,-0.98
2015-09-10T00:22:35.103Z,-0.98
2015-09-10T00:22:47.512Z,-1.06
2015-09-10T00:22:59.965Z,-1.04
2015-09-10T00:23:12.387Z,-0.98
2015-09-10T00:23:24.777Z,-1.07
2015-09-10T00:23:37.184Z,-1.04
2015-09-10T00:23:49.576Z,-1.11
2015-09-10T00:24:01.998Z,-1.03
2015-09-10T00:24:13.686Z,-1.03
2015-09-10T00:24:26.170Z,-1.03
2015-09-10T00:24:38.686Z,-0.99
2015-09-10T00:24:51.109Z,-1.04
2015-09-10T00:25:03.531Z,-1.06
2015-09-10T00:25:15.953Z,-1.01
2015-09-10T00:25:28.406Z,-1.01
2015-09-10T00:25:40.797Z,-0.99
2015-09-10T00:25:53.190Z,-1.06
2015-09-10T00:26:04.940Z,-1.03
2015-09-10T00:26:17.408Z,-1.1
2015-09-10T00:26:29.815Z,-1.11
2015-09-10T00:26:42.221Z,-1.04
2015-09-10T00:26:54.614Z,-1.06
2015-09-10T00:27:07.005Z,-1.07
2015-09-10T00:27:19.458Z,-1.11
2015-09-10T00:27:31.943Z,-1.16
2015-09-10T00:27:44.396Z,-1.13
2015-09-10T00:27:56.804Z,-1.03
2015-09-10T00:28:09.226Z,-1.09
2015-09-10T00:28:21.710Z,-1.13
2015-09-10T00:28:34.163Z,-1.07
2015-09-10T00:28:46.585Z,-1.07
2015-09-10T00:28:59.039Z,-1.11
2015-09-10T00:29:11.446Z,-1.13
2015-09-10T00:29:23.852Z,-1.01
2015-09-10T00:29:36.242Z,-1.21
2015-09-10T00:29:48.758Z,-1.13
2015-09-10T00:30:01.244Z,-1.07
2015-09-10T00:30:13.635Z,-1.06
2015-09-10T00:30:26.026Z,-1.07
2015-09-10T00:30:38.416Z,-1.13
2015-09-10T00:30:50.823Z,-1.13
2015-09-10T00:31:03.075Z,-1.1
2015-09-10T00:31:15.512Z,-1.14
2015-09-10T00:31:27.996Z,-1.1
2015-09-10T00:31:40.434Z,-1.11
2015-09-10T00:31:52.840Z,-1.09
2015-09-10T00:32:05.281Z,-1.03
2015-09-10T00:32:17.703Z,-1.11
2015-09-10T00:32:30.140Z,-1.16
2015-09-10T00:32:42.609Z,-1.11
2015-09-10T00:32:55.031Z,-1.01
2015-09-10T00:33:07.422Z,-1.14
2015-09-10T00:33:19.844Z,-1.09
2015-09-10T00:33:32.266Z,-1.07
2015-09-10T00:33:44.657Z,-1.09
2015-09-10T00:33:57.063Z,-1.03
2015-09-10T00:34:09.456Z,-1.03
2015-09-10T00:34:21.862Z,-1.09
2015-09-10T00:34:34.284Z,-1.14
2015-09-10T00:34:46.706Z,-0.99
2015-09-10T00:34:59.112Z,-1.04
2015-09-10T00:35:11.550Z,-1.13
2015-09-10T00:35:23.972Z,-1.11
2015-09-10T00:35:36.394Z,-1.11
2015-09-10T00:35:48.988Z,-1.04
2015-09-10T00:36:01.378Z,-1.13
2015-09-10T00:36:13.053Z,-1.11
2015-09-10T00:36:25.460Z,-1.14
2015-09-10T00:36:37.866Z,-1.04
2015-09-10T00:36:50.256Z,-1.13
2015-09-10T00:37:02.663Z,-1.04
2015-09-10T00:37:15.070Z,-1.09
2015-09-10T00:37:27.445Z,-1.04
2015-09-10T00:37:39.820Z,-1.11
2015-09-10T00:37:52.242Z,-1.07
2015-09-10T00:38:04.632Z,-1.01
2015-09-10T00:38:17.026Z,-1.07
2015-09-10T00:38:29.464Z,-1.09
2015-09-10T00:38:41.932Z,-1.09
2015-09-10T00:38:54.417Z,-1.06
2015-09-10T00:39:06.807Z,-1.04
2015-09-10T00:39:18.496Z,-1.09
2015-09-10T00:39:30.886Z,-1.07
2015-09-10T00:39:43.293Z,-1.09
2015-09-10T00:39:55.730Z,-1.14
2015-09-10T00:40:08.136Z,-1.11
2015-09-10T00:40:20.546Z,-1.13
2015-09-10T00:40:32.936Z,-1.1
2015-09-10T00:40:45.343Z,-1.1
2015-09-10T00:40:57.749Z,-1.14
2015-09-10T00:41:10.187Z,-1.21
2015-09-10T00:41:22.594Z,-1.14
2015-09-10T00:41:35.015Z,-1.16
2015-09-10T00:41:47.453Z,-1.17
2015-09-10T00:41:59.875Z,-1.13
2015-09-10T00:42:12.347Z,-1.1
2015-09-10T00:42:24.815Z,-1.13
2015-09-10T00:42:37.268Z,-1.11
2015-09-10T00:42:49.659Z,-1.17
2015-09-10T00:43:02.081Z,-1.16
2015-09-10T00:43:14.474Z,-1.11
2015-09-10T00:43:26.864Z,-1.14
2015-09-10T00:43:39.270Z,-1.13
2015-09-10T00:43:51.677Z,-1.13
2015-09-10T00:44:04.067Z,-1.14
2015-09-10T00:44:16.475Z,-1.13
2015-09-10T00:44:28.959Z,-1.16
2015-09-10T00:44:41.365Z,-1.17
2015-09-10T00:44:53.787Z,-1.16
2015-09-10T00:45:06.209Z,-1.13
2015-09-10T00:45:18.633Z,-1.1
2015-09-10T00:45:31.086Z,-1.14
2015-09-10T00:45:43.633Z,-1.17
2015-09-10T00:45:56.055Z,-1.13
2015-09-10T00:46:08.461Z,-1.21
2015-09-10T00:46:20.869Z,-1.1
2015-09-10T00:46:33.260Z,-1.16
2015-09-10T00:46:45.650Z,-1.16
2015-09-10T00:46:58.057Z,-1.14
2015-09-10T00:47:10.463Z,-1.17
2015-09-10T00:47:22.888Z,-1.11
2015-09-10T00:47:35.294Z,-1.17
2015-09-10T00:47:47.685Z,-1.16
2015-09-10T00:48:00.107Z,-1.14
2015-09-10T00:48:12.513Z,-1.14
2015-09-10T00:48:24.936Z,-1.14
2015-09-10T00:48:37.373Z,-1.14
2015-09-10T00:48:49.795Z,-1.1
2015-09-10T00:49:02.201Z,-1.13
2015-09-10T00:49:14.623Z,-1.17
2015-09-10T00:49:27.063Z,-1.24
2015-09-10T00:49:39.500Z,-1.16
2015-09-10T00:49:51.891Z,-1.14
2015-09-10T00:50:04.297Z,-1.19
2015-09-10T00:50:16.688Z,-1.13
2015-09-10T00:50:29.081Z,-1.17
2015-09-10T00:50:41.316Z,-1.16
2015-09-10T00:50:53.847Z,-1.16
2015-09-10T00:51:06.300Z,-1.16
2015-09-10T00:51:18.738Z,-1.13
2015-09-10T00:51:31.146Z,-1.13
2015-09-10T00:51:43.568Z,-1.21
2015-09-10T00:51:55.974Z,-1.16
2015-09-10T00:52:08.380Z,-1.14
2015-09-10T00:52:20.802Z,-1.16
2015-09-10T00:52:33.225Z,-1.19
2015-09-10T00:52:45.647Z,-1.13
2015-09-10T00:52:58.069Z,-1.17
2015-09-10T00:53:10.491Z,-1.13
2015-09-10T00:53:22.897Z,-1.11
2015-09-10T00:53:35.289Z,-1.19
2015-09-10T00:53:47.696Z,-1.13
2015-09-10T00:54:00.227Z,-1.21
2015-09-10T00:54:12.618Z,-1.14
2015-09-10T00:54:24.883Z,-1.17
2015-09-10T00:54:37.291Z,-1.16
2015-09-10T00:54:49.698Z,-1.17
2015-09-10T00:55:02.088Z,-1.14
2015-09-10T00:55:14.495Z,-1.28
2015-09-10T00:55:26.901Z,-1.17
2015-09-10T00:55:39.325Z,-1.24
2015-09-10T00:55:51.747Z,-1.25
2015-09-10T00:56:04.184Z,-1.27
2015-09-10T00:56:16.606Z,-1.21
2015-09-10T00:56:29.043Z,-1.25
2015-09-10T00:56:41.483Z,-1.19
2015-09-10T00:56:53.967Z,-1.19
2015-09-10T00:57:06.389Z,-1.22
2015-09-10T00:57:18.780Z,-1.17
2015-09-10T00:57:31.172Z,-1.14
2015-09-10T00:57:43.579Z,-1.21
2015-09-10T00:57:55.969Z,-1.13
2015-09-10T00:58:08.438Z,-1.19
2015-09-10T00:58:20.876Z,-1.24
2015-09-10T00:58:33.284Z,-1.11
2015-09-10T00:58:45.674Z,-1.27
2015-09-10T00:58:58.081Z,-1.21
2015-09-10T00:59:10.503Z,-1.3
2015-09-10T00:59:22.909Z,-1.25
2015-09-10T00:59:35.348Z,-1.21
2015-09-10T00:59:47.770Z,-1.22
2015-09-10T01:00:00.192Z,-1.27
2015-09-10T01:00:12.645Z,-1.21
2015-09-10T01:00:25.098Z,-1.17
2015-09-10T01:00:37.553Z,-1.22
2015-09-10T01:00:49.960Z,-1.24
2015-09-10T01:01:02.350Z,-1.17
2015-09-10T01:01:14.772Z,-1.22
2015-09-10T01:01:27.178Z,-1.17
2015-09-10T01:01:39.587Z,-1.17
2015-09-10T01:01:51.993Z,-1.11
2015-09-10T01:02:04.415Z,-1.19
2015-09-10T01:02:16.805Z,-1.19
2015-09-10T01:02:29.196Z,-1.11
2015-09-10T01:02:41.650Z,-1.16
2015-09-10T01:02:54.072Z,-1.16
2015-09-10T01:03:06.322Z,-1.13
2015-09-10T01:03:18.728Z,-1.17
2015-09-10T01:03:31.150Z,-1.16
2015-09-10T01:03:43.574Z,-1.13
2015-09-10T01:03:55.980Z,-1.24
2015-09-10T01:04:08.465Z,-1.21
2015-09-10T01:04:20.855Z,-1.19
2015-09-10T01:04:33.246Z,-1.11
2015-09-10T01:04:45.718Z,-1.14
2015-09-10T01:04:58.171Z,-1.19
2015-09-10T01:05:10.561Z,-1.16
2015-09-10T01:05:22.968Z,-1.16
2015-09-10T01:05:35.358Z,-1.16
2015-09-10T01:05:47.767Z,-1.11
2015-09-10T01:06:00.220Z,-1.19
2015-09-10T01:06:12.704Z,-1.16
2015-09-10T01:06:25.110Z,-1.14
2015-09-10T01:06:37.548Z,-1.19
2015-09-10T01:06:49.955Z,-1.11
2015-09-10T01:07:02.377Z,-1.13
2015-09-10T01:07:14.814Z,-1.21
2015-09-10T01:07:27.236Z,-1.17
2015-09-10T01:07:39.674Z,-1.16
2015-09-10T01:07:52.192Z,-1.14
2015-09-10T01:08:04.614Z,-1.11
2015-09-10T01:08:17.021Z,-1.14
2015-09-10T01:08:29.411Z,-1.1
2015-09-10T01:08:41.802Z,-1.16
2015-09-10T01:08:54.210Z,-1.17
2015-09-10T01:09:06.694Z,-1.16
2015-09-10T01:09:19.179Z,-1.14
2015-09-10T01:09:31.585Z,-1.14
2015-09-10T01:09:43.976Z,-1.16
2015-09-10T01:09:56.399Z,-1.1
2015-09-10T01:10:08.836Z,-1.22
2015-09-10T01:10:21.305Z,-1.16
2015-09-10T01:10:33.742Z,-1.24
2015-09-10T01:10:46.166Z,-1.19
2015-09-10T01:10:58.588Z,-1.17
2015-09-10T01:11:11.010Z,-1.14
2015-09-10T01:11:23.447Z,-1.13
2015-09-10T01:11:35.885Z,-1.16
2015-09-10T01:11:48.278Z,-1.19
2015-09-10T01:12:00.684Z,-1.17
2015-09-10T01:12:13.074Z,-1.16
2015-09-10T01:12:25.481Z,-1.19
2015-09-10T01:12:37.871Z,-1.21
2015-09-10T01:12:50.264Z,-1.17
2015-09-10T01:13:02.701Z,-1.27
2015-09-10T01:13:15.186Z,-1.17
2015-09-10T01:13:27.592Z,-1.21
2015-09-10T01:13:39.998Z,-1.16
2015-09-10T01:13:52.422Z,-1.21
2015-09-10T01:14:04.844Z,-1.21
2015-09-10T01:14:17.328Z,-1.27
2015-09-10T01:14:29.813Z,-1.25
2015-09-10T01:14:42.250Z,-1.19
2015-09-10T01:14:54.660Z,-1.3
2015-09-10T01:15:07.050Z,-1.11
2015-09-10T01:15:19.441Z,-1.24
2015-09-10T01:15:31.691Z,-1.19
2015-09-10T01:15:44.081Z,-1.22
2015-09-10T01:15:56.489Z,-1.17
2015-09-10T01:16:08.879Z,-1.27
2015-09-10T01:16:21.317Z,-1.11
2015-09-10T01:16:33.770Z,-1.16
2015-09-10T01:16:46.176Z,-1.16
2015-09-10T01:16:58.585Z,-1.14
2015-09-10T01:17:10.992Z,-1.21
2015-09-10T01:17:23.414Z,-1.21
2015-09-10T01:17:35.867Z,-1.13
2015-09-10T01:17:48.335Z,-1.16
2015-09-10T01:18:00.774Z,-1.14
2015-09-10T01:18:13.196Z,-1.16
2015-09-10T01:18:25.618Z,-1.21
2015-09-10T01:18:38.008Z,-1.16
2015-09-10T01:18:50.461Z,-1.16
2015-09-10T01:19:02.885Z,-1.21
2015-09-10T01:19:15.276Z,-1.25
2015-09-10T01:19:27.667Z,-1.14
2015-09-10T01:19:40.042Z,-1.27
2015-09-10T01:19:52.448Z,-1.16
2015-09-10T01:20:04.872Z,-1.21
2015-09-10T01:20:17.278Z,-1.17
2015-09-10T01:20:29.747Z,-1.21
2015-09-10T01:20:42.153Z,-1.17
2015-09-10T01:20:54.575Z,-1.17
2015-09-10T01:21:06.280Z,-1.13
2015-09-10T01:21:18.702Z,-1.16
2015-09-10T01:21:31.124Z,-1.17
2015-09-10T01:21:43.577Z,-1.16
2015-09-10T01:21:55.999Z,-1.19
2015-09-10T01:22:08.469Z,-1.16
2015-09-10T01:22:20.876Z,-1.17
2015-09-10T01:22:33.266Z,-1.17
2015-09-10T01:22:45.673Z,-1.11
2015-09-10T01:22:58.063Z,-1.14
2015-09-10T01:23:10.456Z,-1.19
2015-09-10T01:23:22.862Z,-1.14
2015-09-10T01:23:35.253Z,-1.14
2015-09-10T01:23:47.643Z,-1.14
2015-09-10T01:24:00.065Z,-1.1
2015-09-10T01:24:12.473Z,-1.16
2015-09-10T01:24:24.880Z,-1.16
2015-09-10T01:24:37.302Z,-1.17
2015-09-10T01:24:49.020Z,-1.16
2015-09-10T01:25:01.505Z,-1.17
2015-09-10T01:25:13.944Z,-1.13
2015-09-10T01:25:26.366Z,-1.16
2015-09-10T01:25:38.038Z,-1.13
2015-09-10T01:25:50.429Z,-1.13
2015-09-10T01:26:02.835Z,-1.16
2015-09-10T01:26:15.227Z,-1.13
2015-09-10T01:26:27.618Z,-1.22
2015-09-10T01:26:40.009Z,-1.16
2015-09-10T01:26:52.477Z,-1.19
2015-09-10T01:27:04.946Z,-1.16
2015-09-10T01:27:17.353Z,-1.17
2015-09-10T01:27:29.760Z,-1.19
2015-09-10T01:27:42.182Z,-1.24
2015-09-10T01:27:54.588Z,-1.19
2015-09-10T01:28:07.025Z,-1.25
2015-09-10T01:28:19.466Z,-1.24
2015-09-10T01:28:31.888Z,-1.21
2015-09-10T01:28:44.325Z,-1.22
2015-09-10T01:28:56.716Z,-1.24
2015-09-10T01:29:09.106Z,-1.31
2015-09-10T01:29:21.593Z,-1.28
2015-09-10T01:29:34.046Z,-1.3
2015-09-10T01:29:46.437Z,-1.25
2015-09-10T01:29:58.827Z,-1.3
2015-09-10T01:30:11.249Z,-1.24
2015-09-10T01:30:23.642Z,-1.3
2015-09-10T01:30:36.032Z,-1.28
2015-09-10T01:30:48.454Z,-1.3
2015-09-10T01:31:00.860Z,-1.27
2015-09-10T01:31:12.548Z,-1.25
2015-09-10T01:31:24.972Z,-1.31
2015-09-10T01:31:37.409Z,-1.31
2015-09-10T01:31:49.831Z,-1.24
2015-09-10T01:32:02.253Z,-1.3
2015-09-10T01:32:14.659Z,-1.32
2015-09-10T01:32:27.068Z,-1.31
2015-09-10T01:32:39.474Z,-1.3
2015-09-10T01:32:51.864Z,-1.27
2015-09-10T01:33:04.271Z,-1.31
2015-09-10T01:33:16.662Z,-1.3
2015-09-10T01:33:29.100Z,-1.28
2015-09-10T01:33:41.522Z,-1.22
2015-09-10T01:33:53.944Z,-1.28
2015-09-10T01:34:06.350Z,-1.28
2015-09-10T01:34:18.742Z,-1.25
2015-09-10T01:34:31.211Z,-1.31
2015-09-10T01:34:43.664Z,-1.3
2015-09-10T01:34:56.102Z,-1.25
2015-09-10T01:35:08.524Z,-1.3
2015-09-10T01:35:20.980Z,-1.27
2015-09-10T01:35:33.417Z,-1.27
2015-09-10T01:35:45.839Z,-1.3
2015-09-10T01:35:58.355Z,-1.27
2015-09-10T01:36:10.730Z,-1.32
2015-09-10T01:36:23.121Z,-1.21
2015-09-10T01:36:35.606Z,-1.28
2015-09-10T01:36:47.996Z,-1.3
2015-09-10T01:37:00.403Z,-1.27
2015-09-10T01:37:12.809Z,-1.28
2015-09-10T01:37:25.202Z,-1.27
2015-09-10T01:37:37.608Z,-1.3
2015-09-10T01:37:50.170Z,-1.28
2015-09-10T01:38:02.639Z,-1.35
2015-09-10T01:38:15.045Z,-1.24
2015-09-10T01:38:27.470Z,-1.27
2015-09-10T01:38:39.892Z,-1.38
2015-09-10T01:38:52.345Z,-1.32
2015-09-10T01:39:04.767Z,-1.34
2015-09-10T01:39:17.189Z,-1.31
2015-09-10T01:39:29.628Z,-1.4
2015-09-10T01:39:42.035Z,-1.42
2015-09-10T01:39:54.425Z,-1.34
2015-09-10T01:40:06.832Z,-1.42
2015-09-10T01:40:19.222Z,-1.37
2015-09-10T01:40:31.614Z,-1.4
2015-09-10T01:40:44.020Z,-1.42
2015-09-10T01:40:56.489Z,-1.46
2015-09-10T01:41:08.864Z,-1.32
2015-09-10T01:41:21.270Z,-1.43
2015-09-10T01:41:33.695Z,-1.4
2015-09-10T01:41:46.086Z,-1.49
2015-09-10T01:41:58.492Z,-1.4
2015-09-10T01:42:10.929Z,-1.45
2015-09-10T01:42:23.398Z,-1.38
2015-09-10T01:42:36.008Z,-1.49
2015-09-10T01:42:48.415Z,-1.46
2015-09-10T01:43:00.805Z,-1.46
2015-09-10T01:43:13.212Z,-1.4
2015-09-10T01:43:25.618Z,-1.42
2015-09-10T01:43:38.010Z,-1.38
2015-09-10T01:43:50.417Z,-1.46
2015-09-10T01:44:02.839Z,-1.46
2015-09-10T01:44:15.260Z,-1.45
2015-09-10T01:44:27.651Z,-1.45
2015-09-10T01:44:40.045Z,-1.45
2015-09-10T01:44:52.467Z,-1.45
2015-09-10T01:45:04.873Z,-1.45
2015-09-10T01:45:17.295Z,-1.43
2015-09-10T01:45:29.795Z,-1.37
2015-09-10T01:45:42.280Z,-1.43
2015-09-10T01:45:54.702Z,-1.42
2015-09-10T01:46:07.093Z,-1.43
2015-09-10T01:46:19.483Z,-1.43
2015-09-10T01:46:31.173Z,-1.46
2015-09-10T01:46:43.563Z,-1.4
2015-09-10T01:46:56.095Z,-1.45
2015-09-10T01:47:08.501Z,-1.37
2015-09-10T01:47:20.891Z,-1.42
2015-09-10T01:47:33.315Z,-1.4
2015-09-10T01:47:45.097Z,-1.43
2015-09-10T01:47:57.518Z,-1.4
2015-09-10T01:48:09.909Z,-1.43
2015-09-10T01:48:22.331Z,-1.52
2015-09-10T01:48:34.755Z,-1.49
2015-09-10T01:48:47.192Z,-1.45
2015-09-10T01:48:59.645Z,-1.6
2015-09-10T01:49:12.067Z,-1.5
2015-09-10T01:49:24.489Z,-1.5
2015-09-10T01:49:36.913Z,-1.43
2015-09-10T01:49:49.351Z,-1.5
2015-09-10T01:50:01.772Z,-1.42
2015-09-10T01:50:14.179Z,-1.46
2015-09-10T01:50:26.460Z,-1.48
2015-09-10T01:50:38.867Z,-1.48
2015-09-10T01:50:51.258Z,-1.49
2015-09-10T01:51:03.742Z,-1.46
2015-09-10T01:51:16.258Z,-1.53
2015-09-10T01:51:27.961Z,-1.52
2015-09-10T01:51:40.369Z,-1.45
2015-09-10T01:51:52.791Z,-1.48
2015-09-10T01:52:05.213Z,-1.49
2015-09-10T01:52:17.635Z,-1.53
2015-09-10T01:52:30.057Z,-1.46
2015-09-10T01:52:42.575Z,-1.56
2015-09-10T01:52:55.028Z,-1.49
2015-09-10T01:53:07.435Z,-1.52
2015-09-10T01:53:19.825Z,-1.48
2015-09-10T01:53:32.216Z,-1.55
2015-09-10T01:53:44.623Z,-1.48
2015-09-10T01:53:57.029Z,-1.53
2015-09-10T01:54:09.436Z,-1.5
2015-09-10T01:54:21.826Z,-1.5
2015-09-10T01:54:34.217Z,-1.5
2015-09-10T01:54:46.610Z,-1.5
2015-09-10T01:54:59.047Z,-1.5
2015-09-10T01:55:11.485Z,-1.52
2015-09-10T01:55:23.922Z,-1.5
2015-09-10T01:55:36.344Z,-1.43
2015-09-10T01:55:48.768Z,-1.5
2015-09-10T01:56:01.221Z,-1.55
2015-09-10T01:56:13.612Z,-1.48
2015-09-10T01:56:26.002Z,-1.48
2015-09-10T01:56:38.408Z,-1.5
2015-09-10T01:56:50.802Z,-1.5
2015-09-10T01:57:03.193Z,-1.5
2015-09-10T01:57:15.583Z,-1.49
2015-09-10T01:57:27.271Z,-1.55
2015-09-10T01:57:39.661Z,-1.55
2015-09-10T01:57:52.054Z,-1.55
2015-09-10T01:58:04.492Z,-1.48
2015-09-10T01:58:16.882Z,-1.48
2015-09-10T01:58:29.367Z,-1.5
2015-09-10T01:58:41.773Z,-1.49
2015-09-10T01:58:54.181Z,-1.52
2015-09-10T01:59:06.587Z,-1.58
2015-09-10T01:59:18.962Z,-1.52
2015-09-10T01:59:31.353Z,-1.55
2015-09-10T01:59:43.777Z,-1.48
2015-09-10T01:59:56.246Z,-1.5
2015-09-10T02:00:08.636Z,-1.46
2015-09-10T02:00:21.042Z,-1.52
2015-09-10T02:00:33.433Z,-1.5
2015-09-10T02:00:45.826Z,-1.46
2015-09-10T02:00:58.216Z,-1.53
2015-09-10T02:01:09.919Z,-1.5
2015-09-10T02:01:22.466Z,-1.52
2015-09-10T02:01:34.888Z,-1.52
2015-09-10T02:01:47.312Z,-1.53
2015-09-10T02:01:59.734Z,-1.52
2015-09-10T02:02:12.171Z,-1.49
2015-09-10T02:02:24.593Z,-1.43
2015-09-10T02:02:37.062Z,-1.55
2015-09-10T02:02:49.501Z,-1.5
2015-09-10T02:03:01.891Z,-1.49
2015-09-10T02:03:14.297Z,-1.46
2015-09-10T02:03:26.688Z,-1.49
2015-09-10T02:03:39.079Z,-1.49
2015-09-10T02:03:51.488Z,-1.49
2015-09-10T02:04:03.988Z,-1.49
2015-09-10T02:04:16.425Z,-1.4
2015-09-10T02:04:28.832Z,-1.46
2015-09-10T02:04:41.238Z,-1.4
2015-09-10T02:04:53.661Z,-1.49
2015-09-10T02:05:05.348Z,-1.48
2015-09-10T02:05:17.833Z,-1.42
2015-09-10T02:05:30.286Z,-1.4
2015-09-10T02:05:42.708Z,-1.45
2015-09-10T02:05:55.147Z,-1.43
2015-09-10T02:06:07.538Z,-1.48
2015-09-10T02:06:19.944Z,-1.37
2015-09-10T02:06:32.335Z,-1.46
2015-09-10T02:06:44.725Z,-1.37
2015-09-10T02:06:57.134Z,-1.43
2015-09-10T02:07:09.524Z,-1.4
2015-09-10T02:07:21.930Z,-1.45
2015-09-10T02:07:34.321Z,-1.43
2015-09-10T02:07:46.743Z,-1.46
2015-09-10T02:07:59.167Z,-1.38
2015-09-10T02:08:11.573Z,-1.42
2015-09-10T02:08:23.995Z,-1.4
2015-09-10T02:08:36.417Z,-1.37
2015-09-10T02:08:48.854Z,-1.32
2015-09-10T02:09:01.294Z,-1.37
2015-09-10T02:09:13.731Z,-1.37
2015-09-10T02:09:26.153Z,-1.37
2015-09-10T02:09:38.544Z,-1.31
2015-09-10T02:09:50.934Z,-1.38
2015-09-10T02:10:03.312Z,-1.31
2015-09-10T02:10:15.687Z,-1.42
2015-09-10T02:10:28.062Z,-1.37
2015-09-10T02:10:40.437Z,-1.38
2015-09-10T02:10:52.828Z,-1.32
2015-09-10T02:11:05.220Z,-1.34
2015-09-10T02:11:16.954Z,-1.28
2015-09-10T02:11:29.423Z,-1.31
2015-09-10T02:11:41.845Z,-1.32
2015-09-10T02:11:54.251Z,-1.32
2015-09-10T02:12:06.675Z,-1.35
2015-09-10T02:12:19.112Z,-1.32
2015-09-10T02:12:31.534Z,-1.34
2015-09-10T02:12:43.253Z,-1.34
2015-09-10T02:12:55.690Z,-1.34
2015-09-10T02:13:08.067Z,-1.35
2015-09-10T02:13:20.442Z,-1.27
2015-09-10T02:13:32.896Z,-1.34
2015-09-10T02:13:45.302Z,-1.35
2015-09-10T02:13:57.677Z,-1.35
2015-09-10T02:14:10.054Z,-1.32
2015-09-10T02:14:22.444Z,-1.37
2015-09-10T02:14:34.851Z,-1.4
2015-09-10T02:14:47.273Z,-1.43
2015-09-10T02:14:59.726Z,-1.31
2015-09-10T02:15:12.149Z,-1.4
2015-09-10T02:15:24.570Z,-1.3
2015-09-10T02:15:36.977Z,-1.48
2015-09-10T02:15:49.414Z,-1.37
2015-09-10T02:16:01.836Z,-1.32
2015-09-10T02:16:14.230Z,-1.45
2015-09-10T02:16:26.652Z,-1.43
2015-09-10T02:16:39.105Z,-1.45
2015-09-10T02:16:51.495Z,-1.43
2015-09-10T02:17:03.902Z,-1.38
2015-09-10T02:17:16.294Z,-1.35
2015-09-10T02:17:28.700Z,-1.46
2015-09-10T02:17:41.107Z,-1.45
2015-09-10T02:17:53.544Z,-1.38
2015-09-10T02:18:05.997Z,-1.43
2015-09-10T02:18:18.405Z,-1.43
2015-09-10T02:18:30.826Z,-1.46
2015-09-10T02:18:43.248Z,-1.42
2015-09-10T02:18:55.670Z,-1.35
2015-09-10T02:19:08.095Z,-1.43
2015-09-10T02:19:20.533Z,-1.4
2015-09-10T02:19:32.954Z,-1.37
2015-09-10T02:19:45.454Z,-1.37
2015-09-10T02:19:57.939Z,-1.43
2015-09-10T02:20:09.627Z,-1.46
2015-09-10T02:20:22.034Z,-1.46
2015-09-10T02:20:34.455Z,-1.37
2015-09-10T02:20:46.862Z,-1.43
2015-09-10T02:20:59.252Z,-1.43
2015-09-10T02:21:11.662Z,-1.46
2015-09-10T02:21:24.052Z,-1.49
2015-09-10T02:21:36.474Z,-1.43
2015-09-10T02:21:48.880Z,-1.35
2015-09-10T02:22:01.302Z,-1.4
2015-09-10T02:22:13.756Z,-1.32
2015-09-10T02:22:25.522Z,-1.45
2015-09-10T02:22:37.959Z,-1.43
2015-09-10T02:22:50.397Z,-1.37
2015-09-10T02:23:02.788Z,-1.45
2015-09-10T02:23:15.180Z,-1.4
2015-09-10T02:23:27.618Z,-1.43
2015-09-10T02:23:40.071Z,-1.42
2015-09-10T02:23:51.758Z,-1.4
2015-09-10T02:24:04.149Z,-1.37
2015-09-10T02:24:16.574Z,-1.45
2015-09-10T02:24:28.980Z,-1.37
2015-09-10T02:24:41.386Z,-1.48
2015-09-10T02:24:53.808Z,-1.45
2015-09-10T02:25:06.214Z,-1.42
2015-09-10T02:25:18.623Z,-1.46
2015-09-10T02:25:31.045Z,-1.38
2015-09-10T02:25:43.498Z,-1.43
2015-09-10T02:25:55.935Z,-1.4
2015-09-10T02:26:08.357Z,-1.43
2015-09-10T02:26:20.749Z,-1.45
2015-09-10T02:26:33.155Z,-1.43
2015-09-10T02:26:45.561Z,-1.35
2015-09-10T02:26:57.811Z,-1.43
2015-09-10T02:27:10.217Z,-1.45
2015-09-10T02:27:22.627Z,-1.37
2015-09-10T02:27:35.017Z,-1.4
2015-09-10T02:27:47.408Z,-1.42
2015-09-10T02:27:59.814Z,-1.46
2015-09-10T02:28:11.564Z,-1.46
2015-09-10T02:28:23.988Z,-1.4
2015-09-10T02:28:36.379Z,-1.43
2015-09-10T02:28:48.816Z,-1.38
2015-09-10T02:29:01.082Z,-1.43
2015-09-10T02:29:13.519Z,-1.4
2015-09-10T02:29:25.942Z,-1.42
2015-09-10T02:29:38.223Z,-1.35
2015-09-10T02:29:50.645Z,-1.37
2015-09-10T02:30:03.052Z,-1.43
2015-09-10T02:30:15.458Z,-1.42
2015-09-10T02:30:27.851Z,-1.46
2015-09-10T02:30:40.258Z,-1.32
2015-09-10T02:30:52.648Z,-1.35
2015-09-10T02:31:05.055Z,-1.38
2015-09-10T02:31:17.461Z,-1.37
2015-09-10T02:31:29.884Z,-1.3
2015-09-10T02:31:42.290Z,-1.37
2015-09-10T02:31:54.712Z,-1.35
2015-09-10T02:32:07.118Z,-1.49
2015-09-10T02:32:19.524Z,-1.4
2015-09-10T02:32:31.948Z,-1.34
2015-09-10T02:32:44.386Z,-1.34
2015-09-10T02:32:56.854Z,-1.38
2015-09-10T02:33:09.308Z,-1.37
2015-09-10T02:33:21.729Z,-1.4
2015-09-10T02:33:34.122Z,-1.35
2015-09-10T02:33:46.513Z,-1.27
2015-09-10T02:33:58.935Z,-1.35
2015-09-10T02:34:11.388Z,-1.38
2015-09-10T02:34:23.825Z,-1.31
2015-09-10T02:34:36.233Z,-1.34
2015-09-10T02:34:48.655Z,-1.37
2015-09-10T02:35:01.046Z,-1.37
2015-09-10T02:35:13.515Z,-1.42
2015-09-10T02:35:25.983Z,-1.42
2015-09-10T02:35:38.392Z,-1.34
2015-09-10T02:35:50.798Z,-1.35
2015-09-10T02:36:03.235Z,-1.35
2015-09-10T02:36:15.657Z,-1.37
2015-09-10T02:36:28.081Z,-1.28
2015-09-10T02:36:40.534Z,-1.34
2015-09-10T02:36:52.941Z,-1.37
2015-09-10T02:37:05.331Z,-1.34
2015-09-10T02:37:17.722Z,-1.3
2015-09-10T02:37:30.114Z,-1.25
2015-09-10T02:37:42.521Z,-1.34
2015-09-10T02:37:54.927Z,-1.34
2015-09-10T02:38:07.318Z,-1.37
2015-09-10T02:38:19.724Z,-1.3
2015-09-10T02:38:32.132Z,-1.34
2015-09-10T02:38:44.523Z,-1.34
2015-09-10T02:38:56.913Z,-1.34
2015-09-10T02:39:09.304Z,-1.34
2015-09-10T02:39:21.710Z,-1.31
2015-09-10T02:39:34.197Z,-1.24
2015-09-10T02:39:46.728Z,-1.35
2015-09-10T02:39:59.212Z,-1.32
2015-09-10T02:40:11.634Z,-1.27